Time;durP1;ratioP1;P1;durP2;ratioP2;P2;SDS_P1;SDS_P2;PMS_P1;PMS_P2;Temp;Humidity;BMP_temperature;BMP_pressure;BME280_temperature;BME280_humidity;BME280_pressure;Samples;Min_cycle;Max_cycle;Signal;HPM_P1;HPM_P2
2023/12/08 00:02:16;;;;;;;157.70;31.58;;;;;;;-0.66;100.00;101131.59;5010452;28;20048;-75
2023/12/08 00:05:00;;;;;;;196.55;38.53;;;;;;;-0.75;100.00;101121.59;5024578;28;20044;-74
2023/12/08 00:07:44;;;;;;;137.88;35.08;;;;;;;-0.66;100.00;101126.34;5008688;28;20052;-75
2023/12/08 00:10:27;;;;;;;194.75;38.58;;;;;;;-0.77;100.00;101123.44;5025560;28;20168;-75
2023/12/08 00:13:11;;;;;;;180.10;36.20;;;;;;;-0.82;100.00;101120.22;5012519;28;20993;-80
2023/12/08 00:15:55;;;;;;;169.75;38.17;;;;;;;-0.62;100.00;101124.44;5010327;28;20164;-76
2023/12/08 00:18:39;;;;;;;185.35;38.45;;;;;;;-0.64;100.00;101130.59;5023889;28;20184;-75
2023/12/08 00:21:25;;;;;;;275.65;41.72;;;;;;;-0.67;100.00;101125.53;5025471;28;20046;-75
2023/12/08 00:24:09;;;;;;;136.60;35.40;;;;;;;-0.47;100.00;101126.22;5024730;28;20090;-76
2023/12/08 00:26:53;;;;;;;182.43;37.58;;;;;;;-0.38;100.00;101130.13;5025077;28;20056;-75
2023/12/08 00:29:37;;;;;;;166.82;37.92;;;;;;;-0.45;100.00;101130.44;5025563;28;20125;-75
2023/12/08 00:32:21;;;;;;;141.98;35.38;;;;;;;-0.61;100.00;101134.81;5024100;28;20080;-75
2023/12/08 00:35:05;;;;;;;158.50;37.70;;;;;;;-0.65;100.00;101134.16;5011045;28;20045;-75
2023/12/08 00:37:49;;;;;;;173.18;43.25;;;;;;;-0.74;100.00;101136.41;5010130;28;20047;-74
2023/12/08 00:40:33;;;;;;;152.07;36.47;;;;;;;-0.60;100.00;101128.66;5024335;28;20049;-75
2023/12/08 00:43:17;;;;;;;143.48;36.42;;;;;;;-0.57;100.00;101122.41;4999013;28;20103;-75
2023/12/08 00:46:01;;;;;;;133.60;33.08;;;;;;;-0.55;100.00;101124.03;5019789;28;20148;-76
2023/12/08 00:48:45;;;;;;;137.93;35.90;;;;;;;-0.64;100.00;101122.72;5010412;28;20100;-74
2023/12/08 00:51:29;;;;;;;127.97;32.72;;;;;;;-0.63;100.00;101110.47;5027806;28;20056;-75
2023/12/08 00:54:14;;;;;;;126.57;34.08;;;;;;;-0.65;100.00;101107.09;5028871;28;20049;-75
2023/12/08 00:56:57;;;;;;;134.87;34.67;;;;;;;-0.53;100.00;101101.19;5013993;28;20531;-74
2023/12/08 00:59:41;;;;;;;137.57;36.28;;;;;;;-0.37;100.00;101106.44;5028682;28;20041;-75
2023/12/08 01:02:26;;;;;;;180.20;40.78;;;;;;;-0.43;100.00;101080.53;5028213;28;20103;-74
2023/12/08 01:05:10;;;;;;;156.57;38.33;;;;;;;-0.31;100.00;101073.78;5028652;28;20582;-75
2023/12/08 01:07:54;;;;;;;159.45;36.63;;;;;;;-0.40;100.00;101080.38;5027274;28;20705;-75
2023/12/08 01:10:38;;;;;;;129.00;33.03;;;;;;;-0.45;100.00;101087.66;5007553;28;20108;-75
2023/12/08 01:13:22;;;;;;;115.55;32.63;;;;;;;-0.40;100.00;101076.91;5028730;28;20095;-73
2023/12/08 01:16:06;;;;;;;113.70;32.38;;;;;;;-0.60;100.00;101072.75;5028509;28;20128;-76
2023/12/08 01:18:50;;;;;;;107.30;30.27;;;;;;;-0.53;100.00;101071.50;5013088;28;20052;-75
2023/12/08 01:21:35;;;;;;;75.22;25.95;;;;;;;-0.65;100.00;101055.47;5022884;28;20480;-75
2023/12/08 01:24:19;;;;;;;82.28;24.73;;;;;;;-0.68;100.00;101055.66;5018001;28;20098;-76
2023/12/08 01:27:04;;;;;;;86.60;27.67;;;;;;;-0.88;100.00;101054.09;5027679;28;20562;-76
2023/12/08 01:29:48;;;;;;;78.07;23.83;;;;;;;-0.63;100.00;101068.53;5013609;28;20572;-75
2023/12/08 01:32:32;;;;;;;95.25;30.45;;;;;;;-0.80;100.00;101066.78;5025792;28;20073;-76
2023/12/08 01:35:16;;;;;;;83.80;26.38;;;;;;;-0.72;100.00;101067.22;5027896;28;20549;-73
2023/12/08 01:38:00;;;;;;;89.47;26.95;;;;;;;-0.80;100.00;101071.19;5015032;28;20068;-76
2023/12/08 01:40:44;;;;;;;78.68;26.00;;;;;;;-0.89;100.00;101056.78;5010602;28;20111;-75
2023/12/08 01:43:28;;;;;;;85.60;26.23;;;;;;;-0.72;100.00;101063.78;5007528;28;20128;-76
2023/12/08 01:46:15;;;;;;;75.60;28.63;;;;;;;-1.06;100.00;101052.44;5016280;28;21018;-75
2023/12/08 01:49:00;;;;;;;74.00;26.60;;;;;;;-1.00;100.00;101062.59;5027370;28;20040;-76
2023/12/08 01:51:44;;;;;;;75.80;25.00;;;;;;;-1.17;100.00;101060.88;5012442;28;20559;-74
2023/12/08 01:54:10;;;;;;;;;;;;;;;-1.08;100.00;101067.38;5019426;28;20092;-75
2023/12/08 01:56:36;;;;;;;82.80;25.58;;;;;;;-1.04;100.00;101065.47;4992259;28;19909;-74
2023/12/08 01:59:02;;;;;;;;;;;;;;;-1.01;100.00;101068.75;5009756;28;20582;-74
2023/12/08 02:01:27;;;;;;;;;;;;;;;-1.04;100.00;101058.44;5027343;28;20024;-75
2023/12/08 02:03:53;;;;;;;68.78;26.05;;;;;;;-1.25;100.00;101041.22;4992472;28;19909;-74
2023/12/08 02:06:18;;;;;;;66.93;24.30;;;;;;;-1.39;100.00;101037.53;5027111;28;20084;-74
2023/12/08 02:08:46;;;;;;;;;;;;;;;-1.00;100.00;101044.25;5009506;28;20055;-75
2023/12/08 02:11:13;;;;;;;72.95;27.63;;;;;;;-1.05;100.00;101033.19;4986534;28;19917;-75
2023/12/08 02:13:38;;;;;;;66.68;23.48;;;;;;;-1.09;100.00;101016.75;5008941;28;20112;-74
2023/12/08 02:16:10;;;;;;;67.25;22.52;;;;;;;-1.19;100.00;101006.84;5025636;28;20136;-74
2023/12/08 02:18:38;;;;;;;64.97;23.45;;;;;;;-1.34;100.00;101000.63;5026462;28;20037;-75
2023/12/08 02:21:04;;;;;;;60.38;23.25;;;;;;;-1.15;100.00;101014.47;5009121;28;20088;-74
2023/12/08 02:23:29;;;;;;;69.65;23.27;;;;;;;-1.18;100.00;101009.38;5003351;28;20041;-74
2023/12/08 02:25:55;;;;;;;;;;;;;;;-1.27;100.00;101002.84;5008195;28;20037;-75
2023/12/08 02:28:20;;;;;;;71.00;23.63;;;;;;;-1.29;100.00;100991.63;5023517;28;19940;-74
2023/12/08 02:30:47;;;;;;;66.65;25.15;;;;;;;-1.07;100.00;100990.47;4997946;28;20092;-74
2023/12/08 02:33:18;;;;;;;69.88;26.02;;;;;;;-1.24;100.00;100977.41;5026026;28;20037;-74
2023/12/08 02:35:45;;;;;;;68.25;23.27;;;;;;;-1.19;100.00;100970.19;5008608;28;20033;-74
2023/12/08 02:38:16;;;;;;;68.10;25.17;;;;;;;-1.36;100.00;100955.31;5026116;28;20665;-74
2023/12/08 02:40:41;;;;;;;59.03;21.83;;;;;;;-1.31;100.00;100946.31;5008621;28;20120;-74
2023/12/08 02:43:07;;;;;;;66.10;24.90;;;;;;;-1.02;100.00;100936.03;5008290;28;20636;-75
2023/12/08 02:45:32;;;;;;;71.00;26.17;;;;;;;-0.81;100.00;100933.19;5026298;28;20447;-75
2023/12/08 02:47:57;;;;;;;60.47;22.70;;;;;;;-0.99;100.00;100924.53;5025835;28;20057;-74
2023/12/08 02:50:23;;;;;;;68.63;26.25;;;;;;;-0.91;100.00;100917.97;5008644;28;20021;-74
2023/12/08 02:52:48;;;;;;;64.78;24.45;;;;;;;-0.75;100.00;100917.09;5001690;28;20034;-74
2023/12/08 02:55:13;;;;;;;67.97;26.15;;;;;;;-1.05;100.00;100902.16;5019913;28;20508;-74
2023/12/08 02:57:39;;;;;;;62.25;24.52;;;;;;;-0.90;100.00;100906.53;5025606;28;20468;-74
2023/12/08 03:00:05;;;;;;;73.78;27.27;;;;;;;-1.01;100.00;100894.94;5008279;28;20469;-74
2023/12/08 03:02:30;;;;;;;65.72;25.02;;;;;;;-0.82;100.00;100900.00;4991074;28;20128;-75
2023/12/08 03:04:59;;;;;;;67.57;25.10;;;;;;;-0.89;100.00;100895.13;5025919;28;20136;-74
2023/12/08 03:07:24;;;;;;;69.78;25.02;;;;;;;-0.87;100.00;100885.41;5025170;28;20040;-74
2023/12/08 03:09:49;;;;;;;;;;;;;;;-0.79;100.00;100886.75;5024945;28;20033;-74
2023/12/08 03:12:15;;;;;;;77.23;27.47;;;;;;;-0.58;100.00;100888.16;5024095;28;19955;-75
2023/12/08 03:14:40;;;;;;;74.35;26.58;;;;;;;-0.70;100.00;100883.63;5024990;28;20355;-74
2023/12/08 03:17:05;;;;;;;;;;;;;;;-0.98;100.00;100876.44;5008331;28;20029;-74
2023/12/08 03:19:31;;;;;;;65.63;25.87;;;;;;;-0.85;100.00;100878.28;5025756;28;19927;-74
2023/12/08 03:21:56;;;;;;;61.00;22.63;;;;;;;-1.01;100.00;100874.81;5025002;28;20141;-74
2023/12/08 03:24:21;;;;;;;54.80;22.73;;;;;;;-0.96;100.00;100878.06;5025567;28;20036;-74
2023/12/08 03:26:47;;;;;;;66.57;25.35;;;;;;;-0.92;100.00;100878.72;5007555;28;20045;-74
2023/12/08 03:29:15;;;;;;;65.50;24.50;;;;;;;-0.81;100.00;100878.13;4999954;28;20028;-73
2023/12/08 03:31:41;;;;;;;62.25;24.38;;;;;;;-0.79;100.00;100887.59;5025081;28;20032;-74
2023/12/08 03:34:06;;;;;;;72.07;25.80;;;;;;;-0.85;100.00;100880.06;4993514;28;20401;-75
2023/12/08 03:36:31;;;;;;;65.80;22.27;;;;;;;-0.77;100.00;100887.47;5007979;28;20029;-75
2023/12/08 03:38:57;;;;;;;61.40;22.85;;;;;;;-0.95;100.00;100866.63;5007393;28;20048;-74
2023/12/08 03:41:22;;;;;;;56.38;23.42;;;;;;;-0.88;100.00;100875.00;4999980;28;20064;-74
2023/12/08 03:43:47;;;;;;;;;;;;;;;-0.66;100.00;100887.72;5023629;28;20084;-75
2023/12/08 03:46:13;;;;;;;62.43;23.33;;;;;;;-0.80;100.00;100875.41;5008022;28;19952;-74
2023/12/08 03:48:38;;;;;;;64.53;25.85;;;;;;;-0.84;100.00;100866.03;5002834;28;20033;-74
2023/12/08 03:51:04;;;;;;;73.20;25.77;;;;;;;-0.73;100.00;100870.66;5025190;28;20025;-74
2023/12/08 03:53:30;;;;;;;;;;;;;;;-0.74;100.00;100866.34;5008139;28;20068;-75
2023/12/08 03:55:55;;;;;;;67.00;24.88;;;;;;;-1.03;100.00;100844.38;5005723;28;19918;-74
2023/12/08 03:58:20;;;;;;;65.85;24.40;;;;;;;-0.92;100.00;100853.34;5021734;28;20037;-74
2023/12/08 04:00:46;;;;;;;67.68;23.75;;;;;;;-0.73;100.00;100847.91;5002339;28;20044;-74
2023/12/08 04:03:11;;;;;;;66.80;23.95;;;;;;;-0.89;100.00;100853.19;5023194;28;20061;-75
2023/12/08 04:05:37;;;;;;;71.88;25.90;;;;;;;-1.05;100.00;100841.88;5019041;28;20033;-74
2023/12/08 04:08:05;;;;;;;68.80;24.38;;;;;;;-0.77;100.00;100856.88;5023552;28;20057;-74
2023/12/08 04:10:31;;;;;;;66.35;26.67;;;;;;;-0.89;100.00;100847.06;5000670;28;20108;-74
2023/12/08 04:12:57;;;;;;;69.70;26.98;;;;;;;-0.79;100.00;100868.41;5006022;28;20476;-74
2023/12/08 04:15:22;;;;;;;;;;;;;;;-0.77;100.00;100856.03;5008294;28;20041;-75
2023/12/08 04:17:48;;;;;;;68.63;25.00;;;;;;;-0.73;100.00;100842.66;5024862;28;19909;-74
2023/12/08 04:20:13;;;;;;;65.80;27.38;;;;;;;-1.07;100.00;100838.50;5007272;28;20048;-74
2023/12/08 04:22:39;;;;;;;67.57;27.83;;;;;;;-0.96;100.00;100836.13;5024851;28;20034;-74
2023/12/08 04:25:05;;;;;;;68.53;24.98;;;;;;;-0.85;100.00;100840.75;5007850;28;20033;-75
2023/12/08 04:27:30;;;;;;;;;;;;;;;-0.91;100.00;100831.47;5005046;28;20871;-75
2023/12/08 04:29:55;;;;;;;58.67;24.13;;;;;;;-0.93;100.00;100819.38;5009516;28;19913;-75
2023/12/08 04:32:21;;;;;;;77.35;25.67;;;;;;;-0.99;100.00;100810.06;5026585;28;20071;-74
2023/12/08 04:34:46;;;;;;;67.60;25.25;;;;;;;-0.94;100.00;100813.25;5028516;28;20025;-74
2023/12/08 04:37:12;;;;;;;68.18;24.40;;;;;;;-1.02;100.00;100810.25;5002873;28;20140;-74
2023/12/08 04:39:37;;;;;;;;;;;;;;;-1.04;100.00;100819.97;5028867;28;20037;-74
2023/12/08 04:42:03;;;;;;;68.90;24.65;;;;;;;-1.00;100.00;100834.59;5010253;28;19908;-75
2023/12/08 04:44:28;;;;;;;68.45;23.23;;;;;;;-1.04;100.00;100843.56;5023805;28;20481;-74
2023/12/08 04:46:53;;;;;;;57.55;20.73;;;;;;;-1.12;100.00;100823.03;4995571;28;20141;-74
2023/12/08 04:49:19;;;;;;;59.58;22.92;;;;;;;-1.08;100.00;100828.91;5011793;28;20025;-74
2023/12/08 04:51:44;;;;;;;;;;;;;;;-1.20;100.00;100837.47;5018668;28;20044;-74
2023/12/08 04:54:09;;;;;;;59.90;21.50;;;;;;;-1.16;100.00;100834.59;5026181;28;20051;-74
2023/12/08 04:56:35;;;;;;;56.90;22.25;;;;;;;-0.90;100.00;100850.63;5025450;28;20041;-74
2023/12/08 04:59:00;;;;;;;57.42;21.52;;;;;;;-1.09;100.00;100837.72;4989240;28;20052;-74
2023/12/08 05:01:26;;;;;;;61.78;23.67;;;;;;;-1.09;100.00;100846.44;5025237;28;20029;-75
2023/12/08 05:03:51;;;;;;;61.92;21.90;;;;;;;-0.96;100.00;100848.34;5010108;28;20036;-73
2023/12/08 05:06:17;;;;;;;59.45;23.65;;;;;;;-1.10;100.00;100839.50;5026878;28;20022;-75
2023/12/08 05:08:43;;;;;;;60.50;23.27;;;;;;;-1.09;100.00;100845.59;5027950;28;20882;-74
2023/12/08 05:11:08;;;;;;;66.53;24.23;;;;;;;-1.06;100.00;100840.16;5010204;28;20099;-74
2023/12/08 05:13:34;;;;;;;59.70;23.90;;;;;;;-1.12;100.00;100830.03;5010303;28;20444;-74
2023/12/08 05:15:59;;;;;;;66.30;24.42;;;;;;;-1.12;100.00;100830.03;5027926;28;20037;-74
2023/12/08 05:18:25;;;;;;;61.42;23.80;;;;;;;-1.04;100.00;100827.81;5010097;28;20025;-74
2023/12/08 05:20:51;;;;;;;61.42;23.83;;;;;;;-0.97;100.00;100836.19;5009869;28;20112;-74
2023/12/08 05:23:18;;;;;;;60.42;23.70;;;;;;;-0.94;100.00;100822.91;5027793;28;20159;-75
2023/12/08 05:25:43;;;;;;;73.53;25.10;;;;;;;-1.09;100.00;100808.91;5009834;28;20037;-74
2023/12/08 05:28:09;;;;;;;67.60;24.77;;;;;;;-0.99;100.00;100836.28;5027682;28;20033;-74
2023/12/08 05:30:34;;;;;;;68.97;24.05;;;;;;;-0.87;100.00;100846.09;5027857;28;20025;-74
2023/12/08 05:32:59;;;;;;;;;;;;;;;-0.88;100.00;100833.06;4991576;28;20038;-74
2023/12/08 05:35:25;;;;;;;71.20;27.03;;;;;;;-0.92;100.00;100832.38;5028451;28;20272;-74
2023/12/08 05:37:50;;;;;;;57.53;21.27;;;;;;;-0.75;100.00;100828.81;5026288;28;20044;-74
2023/12/08 05:40:15;;;;;;;64.78;24.48;;;;;;;-0.94;100.00;100804.56;5010173;28;20091;-74
2023/12/08 05:42:41;;;;;;;;;;;;;;;-0.71;100.00;100795.38;5025319;28;20036;-74
2023/12/08 05:45:07;;;;;;;75.97;24.95;;;;;;;-0.98;100.00;100779.47;5027371;28;20220;-74
2023/12/08 05:47:32;;;;;;;;;;;;;;;-0.76;100.00;100782.53;5019561;28;20033;-73
2023/12/08 05:49:58;;;;;;;62.03;24.10;;;;;;;-0.75;100.00;100780.75;5009432;28;19920;-74
2023/12/08 05:52:23;;;;;;;53.80;21.13;;;;;;;-0.67;100.00;100783.78;5009394;28;20032;-74
2023/12/08 05:54:48;;;;;;;64.68;23.63;;;;;;;-0.77;100.00;100772.13;5007165;28;20752;-74
2023/12/08 05:57:14;;;;;;;53.03;22.70;;;;;;;-0.72;100.00;100783.22;5009383;28;20599;-74
2023/12/08 05:59:39;;;;;;;54.90;21.73;;;;;;;-0.66;100.00;100772.34;5027054;28;20034;-75
2023/12/08 06:05:26;;;;;;;56.35;21.98;;;;;;;-0.65;100.00;100772.28;5010973;28;20084;-74
2023/12/08 06:07:52;;;;;;;51.70;20.77;;;;;;;-0.57;100.00;100774.44;5019994;28;20486;-74
2023/12/08 06:10:17;;;;;;;50.13;22.52;;;;;;;-0.65;100.00;100792.41;5004870;28;20029;-74
2023/12/08 06:12:42;;;;;;;44.78;21.00;;;;;;;-0.64;100.00;100783.59;5026186;28;20488;-75
2023/12/08 06:15:09;;;;;;;48.08;21.77;;;;;;;-0.46;100.00;100794.78;5002699;28;20025;-74
2023/12/08 06:17:35;;;;;;;51.58;21.45;;;;;;;-0.42;100.00;100785.81;5009528;28;20034;-74
2023/12/08 06:20:01;;;;;;;49.05;20.35;;;;;;;-0.53;100.00;100791.69;5026988;28;20033;-74
2023/12/08 06:22:26;;;;;;;;;;;;;;;-0.74;100.00;100779.84;5022728;28;20564;-74
2023/12/08 06:24:53;;;;;;;51.92;19.45;;;;;;;-0.66;100.00;100782.84;5006828;28;19913;-74
2023/12/08 06:27:18;;;;;;;49.20;20.52;;;;;;;-0.53;100.00;100781.19;5025601;28;20034;-74
2023/12/08 06:29:44;;;;;;;;;;;;;;;-0.40;100.00;100780.47;5027350;28;20036;-74
2023/12/08 06:32:09;;;;;;;51.57;21.43;;;;;;;-0.43;100.00;100787.56;5026397;28;19920;-74
2023/12/08 06:34:34;;;;;;;48.67;20.08;;;;;;;-0.36;100.00;100779.34;5009331;28;20037;-74
2023/12/08 06:37:00;;;;;;;42.15;18.13;;;;;;;-0.75;100.00;100775.50;5001774;28;20076;-74
2023/12/08 06:39:25;;;;;;;52.38;22.23;;;;;;;-0.68;100.00;100767.22;5020944;28;20046;-73
2023/12/08 06:41:51;;;;;;;44.90;18.90;;;;;;;-0.63;100.00;100777.44;5023379;28;20065;-74
2023/12/08 06:44:19;;;;;;;53.60;22.33;;;;;;;-0.42;100.00;100788.44;5012320;28;20087;-73
2023/12/08 06:46:44;;;;;;;50.22;20.92;;;;;;;-0.48;100.00;100768.66;5028895;28;20250;-74
2023/12/08 06:49:09;;;;;;;50.28;21.38;;;;;;;-0.59;100.00;100765.81;5016216;28;20040;-74
2023/12/08 06:51:35;;;;;;;46.72;20.60;;;;;;;-0.41;100.00;100776.16;4974047;28;20042;-74
2023/12/08 06:54:02;;;;;;;49.75;20.63;;;;;;;-0.60;100.00;100769.38;4993273;28;20038;-74
2023/12/08 06:56:27;;;;;;;41.65;19.42;;;;;;;-0.53;100.00;100765.47;5018443;28;20044;-74
2023/12/08 06:58:53;;;;;;;49.22;21.40;;;;;;;-0.54;100.00;100757.66;5025847;28;20053;-74
2023/12/08 07:01:19;;;;;;;45.00;19.35;;;;;;;-0.56;100.00;100752.53;5000847;28;20045;-74
2023/12/08 07:03:44;;;;;;;45.28;17.33;;;;;;;-0.53;100.00;100760.22;5025078;28;20037;-74
2023/12/08 07:06:09;;;;;;;;;;;;;;;-0.54;100.00;100758.53;5025359;28;20478;-74
2023/12/08 07:08:35;;;;;;;45.47;18.67;;;;;;;-0.44;100.00;100762.28;5026441;28;19917;-74
2023/12/08 07:11:00;;;;;;;40.55;16.98;;;;;;;-0.30;100.00;100761.47;5018913;28;20029;-74
2023/12/08 07:13:25;;;;;;;41.50;18.95;;;;;;;-0.36;100.00;100745.25;5026075;28;20041;-77
2023/12/08 07:15:51;;;;;;;39.28;18.13;;;;;;;-0.35;100.00;100749.53;5026203;28;20072;-75
2023/12/08 07:18:17;;;;;;;43.65;17.85;;;;;;;-0.51;100.00;100744.41;5026090;28;20447;-74
2023/12/08 07:20:42;;;;;;;38.70;17.20;;;;;;;-0.33;100.00;100750.31;5026269;28;20035;-75
2023/12/08 07:23:08;;;;;;;37.08;17.23;;;;;;;-0.35;100.00;100746.91;4991801;28;20041;-75
2023/12/08 07:25:33;;;;;;;36.58;17.63;;;;;;;-0.51;100.00;100745.22;5026357;28;20045;-74
2023/12/08 07:27:59;;;;;;;47.63;20.15;;;;;;;-0.37;100.00;100754.06;5015398;28;20029;-74
2023/12/08 07:30:24;;;;;;;42.58;17.65;;;;;;;-0.28;100.00;100746.47;5014799;28;20867;-74
2023/12/08 07:32:50;;;;;;;48.10;18.48;;;;;;;-0.35;100.00;100746.91;5000261;28;20611;-75
2023/12/08 07:35:15;;;;;;;;;;;;;;;-0.34;100.00;100738.97;5025352;28;20047;-75
2023/12/08 07:37:41;;;;;;;40.78;17.63;;;;;;;-0.31;100.00;100743.19;4985058;28;19912;-74
2023/12/08 07:40:07;;;;;;;47.70;19.98;;;;;;;-0.39;100.00;100737.56;5025045;28;20065;-74
2023/12/08 07:42:32;;;;;;;43.17;19.33;;;;;;;-0.29;100.00;100741.31;5018065;28;20069;-74
2023/12/08 07:44:58;;;;;;;41.88;17.67;;;;;;;-0.39;100.00;100737.56;5025222;28;20079;-75
2023/12/08 07:47:23;;;;;;;41.60;17.35;;;;;;;-0.38;100.00;100731.38;5025361;28;20052;-75
2023/12/08 07:49:49;;;;;;;43.28;19.77;;;;;;;-0.30;100.00;100732.59;5007805;28;20120;-74
2023/12/08 07:52:15;;;;;;;38.88;17.58;;;;;;;-0.21;100.00;100736.47;5025591;28;20083;-74
2023/12/08 07:54:40;;;;;;;37.20;17.42;;;;;;;-0.18;100.00;100741.50;5008314;28;20037;-76
2023/12/08 07:57:05;;;;;;;42.30;19.20;;;;;;;-0.22;100.00;100732.13;5005141;28;20042;-76
2023/12/08 07:59:31;;;;;;;45.70;19.10;;;;;;;-0.10;100.00;100725.28;5019945;28;20060;-75
2023/12/08 08:01:56;;;;;;;37.53;17.27;;;;;;;-0.27;100.00;100711.41;5004314;28;20033;-76
2023/12/08 08:04:21;;;;;;;43.50;19.63;;;;;;;-0.07;100.00;100719.84;5006989;28;20415;-74
2023/12/08 08:06:47;;;;;;;46.70;20.20;;;;;;;-0.21;100.00;100702.34;5009503;28;20033;-77
2023/12/08 08:09:13;;;;;;;42.60;18.10;;;;;;;-0.24;100.00;100708.59;5012842;28;20520;-75
2023/12/08 08:11:38;;;;;;;42.58;17.60;;;;;;;-0.19;100.00;100710.94;5024882;28;20041;-75
2023/12/08 08:14:03;;;;;;;43.10;16.80;;;;;;;-0.27;100.00;100705.34;5028518;28;20038;-74
2023/12/08 08:16:29;;;;;;;41.63;20.60;;;;;;;-0.36;100.00;100705.91;5024682;28;20452;-74
2023/12/08 08:18:54;;;;;;;42.33;16.77;;;;;;;-0.14;100.00;100706.28;4985201;28;20145;-75
2023/12/08 08:21:19;;;;;;;40.35;17.80;;;;;;;-0.06;100.00;100706.63;5003463;28;20825;-74
2023/12/08 08:23:45;;;;;;;38.60;16.08;;;;;;;0.08;100.00;100704.94;5011584;28;20451;-77
2023/12/08 08:26:10;;;;;;;41.00;18.63;;;;;;;-0.26;100.00;100694.75;5009277;28;20042;-76
2023/12/08 08:28:36;;;;;;;40.17;17.73;;;;;;;-0.25;100.00;100704.31;5010819;28;20512;-74
2023/12/08 08:31:01;;;;;;;37.95;16.42;;;;;;;-0.22;100.00;100705.91;4993716;28;20481;-75
2023/12/08 08:33:27;;;;;;;34.90;16.17;;;;;;;-0.15;100.00;100701.94;5018113;28;20397;-76
2023/12/08 08:35:52;;;;;;;33.47;15.43;;;;;;;-0.12;100.00;100700.91;5011137;28;20038;-74
2023/12/08 08:38:17;;;;;;;37.58;16.40;;;;;;;-0.10;100.00;100699.88;5026180;28;20128;-74
2023/12/08 08:40:43;;;;;;;38.75;16.58;;;;;;;-0.13;100.00;100701.88;5029015;28;20032;-75
2023/12/08 08:43:08;;;;;;;30.60;16.63;;;;;;;0.07;100.00;100708.50;4991746;28;20501;-74
2023/12/08 08:45:35;;;;;;;36.58;16.08;;;;;;;0.17;100.00;100701.75;5016998;28;20049;-78
2023/12/08 08:48:01;;;;;;;30.40;14.30;;;;;;;0.29;100.00;100694.88;4993256;28;20052;-76
2023/12/08 08:50:26;;;;;;;;;;;;;;;0.03;100.00;100689.47;5015138;28;20043;-74
2023/12/08 08:52:52;;;;;;;38.38;15.48;;;;;;;-0.02;100.00;100675.81;5012302;28;19909;-75
2023/12/08 08:55:17;;;;;;;38.10;16.85;;;;;;;0.05;100.00;100682.34;5021425;28;20044;-74
2023/12/08 08:57:44;;;;;;;32.85;15.27;;;;;;;0.02;100.00;100673.81;5011116;28;20483;-74
2023/12/08 09:00:12;;;;;;;35.80;15.80;;;;;;;0.05;100.00;100684.97;5021022;28;20047;-75
2023/12/08 09:02:37;;;;;;;36.22;15.98;;;;;;;0.23;100.00;100695.25;5011126;28;20031;-75
2023/12/08 09:05:04;;;;;;;37.63;17.00;;;;;;;0.05;100.00;100681.47;5028613;28;20056;-74
2023/12/08 09:07:29;;;;;;;38.05;14.85;;;;;;;0.15;100.00;100687.84;4987069;28;20485;-75
2023/12/08 09:09:55;;;;;;;29.70;14.48;;;;;;;0.33;100.00;100684.06;5028543;28;20076;-76
2023/12/08 09:12:20;;;;;;;34.67;15.43;;;;;;;0.35;100.00;100684.81;5027516;28;20812;-78
2023/12/08 09:14:45;;;;;;;33.55;14.73;;;;;;;0.34;100.00;100685.75;5010929;28;20040;-76
2023/12/08 09:17:11;;;;;;;36.90;16.17;;;;;;;0.29;100.00;100676.47;5010164;28;20091;-76
2023/12/08 09:19:37;;;;;;;31.75;15.05;;;;;;;0.15;100.00;100672.94;5010605;28;20033;-74
2023/12/08 09:22:03;;;;;;;34.90;15.02;;;;;;;-0.03;100.00;100660.97;4992796;28;20041;-74
2023/12/08 09:24:28;;;;;;;32.63;16.02;;;;;;;0.13;100.00;100663.47;5005961;28;20022;-75
2023/12/08 09:26:54;;;;;;;35.88;15.15;;;;;;;0.10;100.00;100674.19;5017522;28;20888;-74
2023/12/08 09:29:20;;;;;;;38.03;16.65;;;;;;;0.38;100.00;100674.09;5027898;28;20010;-74
2023/12/08 09:31:46;;;;;;;36.88;15.32;;;;;;;0.22;100.00;100644.53;5010865;28;20091;-74
2023/12/08 09:34:11;;;;;;;33.00;15.48;;;;;;;0.35;100.00;100658.56;5019311;28;20038;-75
2023/12/08 09:36:36;;;;;;;35.15;16.35;;;;;;;0.20;100.00;100643.78;5019743;28;20041;-75
2023/12/08 09:39:21;;;;;;;38.58;16.02;;;;;;;0.17;100.00;100643.97;5007242;28;20055;-75
2023/12/08 09:41:50;;;;;;;40.15;16.70;;;;;;;0.16;100.00;100637.03;5022381;28;20045;-74
2023/12/08 09:44:17;;;;;;;40.30;17.58;;;;;;;0.34;100.00;100653.38;4974814;28;20037;-75
2023/12/08 09:46:44;;;;;;;35.05;15.35;;;;;;;0.32;100.00;100645.59;4982971;28;20025;-75
2023/12/08 09:49:39;;;;;;;35.05;16.20;;;;;;;0.31;100.00;100648.34;5009489;28;20041;-77
2023/12/08 09:52:05;;;;;;;32.97;14.13;;;;;;;0.33;100.00;100649.09;5000586;28;20279;-76
2023/12/08 09:54:31;;;;;;;32.10;15.48;;;;;;;0.48;100.00;100652.50;5028127;28;20030;-75
2023/12/08 09:56:57;;;;;;;;;;;;;;;0.22;100.00;100644.53;5021856;28;20124;-75
2023/12/08 09:59:31;;;;;;;35.47;16.40;;;;;;;0.36;100.00;100644.47;5004180;28;19971;-76
2023/12/08 10:01:56;;;;;;;39.47;17.13;;;;;;;0.31;100.00;100636.03;5019122;28;20033;-75
2023/12/08 10:04:23;;;;;;;49.53;19.92;;;;;;;0.29;100.00;100642.34;5020441;28;20539;-74
2023/12/08 10:06:50;;;;;;;41.65;18.17;;;;;;;0.47;100.00;100629.78;5018168;28;20038;-75
2023/12/08 10:09:19;;;;;;;38.95;18.33;;;;;;;0.34;100.00;100627.97;5009246;28;20022;-76
2023/12/08 10:11:44;;;;;;;38.40;17.25;;;;;;;0.32;100.00;100623.75;5024365;28;20029;-78
2023/12/08 10:14:12;;;;;;;40.47;20.58;;;;;;;0.23;100.00;100613.84;5010112;28;20114;-77
2023/12/08 10:16:37;;;;;;;48.65;23.35;;;;;;;0.30;100.00;100618.59;5010169;28;20084;-74
2023/12/08 10:19:05;;;;;;;45.95;19.88;;;;;;;0.45;100.00;100618.56;5000143;28;20029;-75
2023/12/08 10:21:30;;;;;;;38.90;16.23;;;;;;;0.36;100.00;100612.13;5009778;28;20243;-75
2023/12/08 10:24:02;;;;;;;39.17;17.92;;;;;;;0.31;100.00;100609.78;5027325;28;20131;-75
2023/12/08 10:26:29;;;;;;;44.88;20.38;;;;;;;0.33;100.00;100618.41;5009548;28;20136;-75
2023/12/08 10:28:59;;;;;;;38.63;18.27;;;;;;;0.38;100.00;100634.72;5027383;28;20037;-76
2023/12/08 10:31:25;;;;;;;41.58;18.40;;;;;;;0.30;100.00;100623.84;5026437;28;20518;-77
2023/12/08 10:33:51;;;;;;;;;;;;;;;0.39;100.00;100622.41;5027029;28;20030;-77
2023/12/08 10:36:17;;;;;;;37.67;18.58;;;;;;;0.45;100.00;100621.19;5001628;28;19913;-75
2023/12/08 10:38:43;;;;;;;31.15;15.55;;;;;;;0.46;100.00;100613.19;5009945;28;20037;-75
2023/12/08 10:41:12;;;;;;;43.67;18.92;;;;;;;0.62;100.00;100618.28;5027277;28;20099;-74
2023/12/08 10:43:39;;;;;;;37.72;17.65;;;;;;;0.54;100.00;100610.03;5001280;28;20496;-74
2023/12/08 10:46:05;;;;;;;39.97;18.25;;;;;;;0.65;100.00;100612.81;5024803;28;20115;-74
2023/12/08 10:48:31;;;;;;;;;;;;;;;0.68;100.00;100596.84;5003807;28;20692;-75
2023/12/08 10:50:57;;;;;;;35.72;16.75;;;;;;;0.70;100.00;100600.19;4992781;28;20328;-76
2023/12/08 10:53:23;;;;;;;41.58;18.58;;;;;;;0.46;100.00;100580.81;4985967;28;20051;-77
2023/12/08 10:56:03;;;;;;;36.97;16.65;;;;;;;0.60;100.00;100583.38;4998692;28;20029;-74
2023/12/08 10:58:32;;;;;;;37.80;19.00;;;;;;;0.72;100.00;100582.53;4999886;28;20477;-74
2023/12/08 11:00:57;;;;;;;35.28;17.30;;;;;;;0.67;100.00;100558.38;4973670;28;20034;-75
2023/12/08 11:03:31;;;;;;;38.10;20.23;;;;;;;0.71;100.00;100554.59;5011156;28;20088;-77
2023/12/08 11:06:09;;;;;;;37.05;18.08;;;;;;;0.77;100.00;100553.31;5001016;28;20064;-75
2023/12/08 11:08:35;;;;;;;36.10;18.83;;;;;;;0.82;100.00;100557.34;5007676;28;20449;-76
2023/12/08 11:11:03;;;;;;;36.88;17.55;;;;;;;0.57;100.00;100528.41;4999020;28;20519;-74
2023/12/08 11:13:33;;;;;;;43.10;17.02;;;;;;;0.77;100.00;100538.44;4997588;28;20062;-74
2023/12/08 11:16:17;;;;;;;36.90;18.63;;;;;;;0.53;100.00;100516.44;5015153;28;20025;-75
2023/12/08 11:18:44;;;;;;;37.50;17.40;;;;;;;0.69;100.00;100517.06;4986362;28;20042;-74
2023/12/08 11:21:10;;;;;;;43.97;17.40;;;;;;;0.87;100.00;100519.38;5024101;28;20049;-75